Latest Weather Observations for Mount Stuart (Defence)

IDQ60801

Issued at 8:31 am EST Wednesday 23 October 2019 (issued every 10 minutes, with the page automatically refreshed every 10 minutes)

About weather observations | Map of weather stations | Latest weather observations for QLD | Other Formats
Station Details ID: 032195 Name: MOUNT STUART (DEFENCE) Lat: -19.41 Lon: 146.76 Height: 176.36 m
Data from the previous 72 hours. | See also: Recent months at Mount Stuart (Defence)
Date/Time
EST
Temp
°C
App
Temp
°C
Dew
Point
°C
Rel
Hum
%
Delta-T
°C
Wind Press
QNH
hPa
Press
MSL
hPa
Rain since
9am
mm
Dir  Spd
km/h
Gust
km/h
Spd
kts
Gust
kts
23/08:30am 24.0 22.9 15.2 58 5.3 SE 15 26 8 14 - - 0.0
23/08:00am 22.7 21.5 15.0 61 4.6 SSE 15 24 8 13 - - 0.0
23/07:30am 22.2 22.0 14.6 62 4.5 SSE 9 17 5 9 - - 0.0
23/07:00am 20.9 20.7 14.8 68 3.6 SSE 9 15 5 8 - - 0.0
23/06:30am 19.8 20.2 14.8 73 2.9 S 6 11 3 6 - - 0.0
23/06:00am 19.4 19.8 15.3 77 2.4 SSE 7 13 4 7 - - 0.0
23/05:30am 19.3 19.4 15.4 78 2.3 SSE 9 15 5 8 - - 0.0
23/05:00am 19.6 19.7 15.5 77 2.4 SSE 9 17 5 9 - - 0.0
23/04:30am 19.3 20.2 15.0 76 2.5 SE 4 7 2 4 - - 0.0
23/04:00am 19.5 19.3 14.7 74 2.8 SE 9 13 5 7 - - 0.0
23/03:30am 19.6 18.9 14.4 72 3.0 SSE 11 15 6 8 - - 0.0
23/03:00am 20.0 19.4 14.6 71 3.2 S 11 15 6 8 - - 0.0
23/02:30am 20.2 19.9 14.3 69 3.5 S 9 15 5 8 - - 0.0
23/02:00am 20.7 20.8 14.4 67 3.7 SE 7 13 4 7 - - 0.0
23/01:30am 20.8 20.5 14.5 67 3.7 SSW 9 13 5 7 - - 0.0
23/01:00am 21.5 20.4 14.4 64 4.2 ESE 13 22 7 12 - - 0.0
23/12:30am 21.8 19.1 14.7 64 4.2 E 22 39 12 21 - - 0.0
23/12:00am 22.0 18.9 14.6 63 4.4 E 24 37 13 20 - - 0.0
 
Date/Time
EST
Temp
°C
App
Temp
°C
Dew
Point
°C
Rel
Hum
%
Delta-T
°C
Wind Press
QNH
hPa
Press
MSL
hPa
Rain since
9am
mm
Dir  Spd
km/h
Gust
km/h
Spd
kts
Gust
kts
22/11:30pm 22.1 18.7 14.7 63 4.4 E 26 43 14 23 - - 0.0
22/11:00pm 22.1 20.0 15.2 65 4.1 E 20 30 11 16 - - 0.0
22/10:30pm 22.0 20.4 16.1 69 3.6 ENE 19 28 10 15 - - 0.0
22/10:00pm 22.1 19.9 15.9 68 3.8 ENE 22 30 12 16 - - 0.0
22/09:30pm 22.3 19.8 16.1 68 3.8 ENE 24 30 13 16 - - 0.0
22/09:00pm 22.5 19.7 16.3 68 3.8 E 26 35 14 19 - - 0.0
22/08:30pm 22.6 19.5 15.7 65 4.2 ENE 26 37 14 20 - - 0.0
22/08:15pm 22.8 18.9 15.4 63 4.5 E 30 48 16 26 - - 0.0
22/08:00pm 23.0 18.6 15.1 61 4.7 ENE 32 41 17 22 - - 0.0
22/07:30pm 23.1 18.9 14.7 59 5.0 E 30 44 16 24 - - 0.0
22/07:00pm 23.3 19.6 15.9 63 4.5 E 30 43 16 23 - - 0.0
22/06:30pm 23.6 19.2 15.6 61 4.9 ENE 33 48 18 26 - - 0.0
22/06:13pm 23.9 20.0 15.4 59 5.1 ENE 30 48 16 26 - - 0.0
22/06:00pm 24.1 19.7 15.1 57 5.4 ENE 32 44 17 24 - - 0.0
22/05:30pm 24.4 19.1 15.3 57 5.5 ENE 37 48 20 26 - - 0.0
22/05:00pm 24.9 20.3 16.1 58 5.4 ENE 35 48 19 26 - - 0.0
22/04:30pm 25.8 21.2 15.2 52 6.4 ENE 33 46 18 25 - - 0.0
22/04:03pm 27.0 21.9 13.0 42 8.3 ENE 32 52 17 28 - - 0.0
22/04:00pm 26.9 21.4 12.5 40 8.4 ENE 33 52 18 28 - - 0.0
22/03:30pm 28.0 22.5 12.0 37 9.3 ENE 32 50 17 27 - - 0.0
22/03:23pm 27.7 22.7 12.1 38 9.1 E 30 50 16 27 - - 0.0
22/03:00pm 27.5 21.6 12.3 39 8.9 E 35 50 19 27 - - 0.0
22/02:30pm 27.9 21.3 10.1 33 10.1 E 35 48 19 26 - - 0.0
22/02:00pm 29.4 23.9 11.9 34 10.2 E 32 52 17 28 - - 0.0
22/01:30pm 28.7 23.2 12.6 37 9.5 E 33 54 18 29 - - 0.0
22/01:25pm 28.7 22.7 12.2 36 9.7 E 35 54 19 29 - - 0.0
22/01:00pm 28.8 23.7 13.1 38 9.3 ENE 32 46 17 25 - - 0.0
22/12:30pm 29.2 25.6 14.2 40 9.1 ENE 26 43 14 23 - - 0.0
22/12:27pm 28.5 24.5 14.0 41 8.7 ENE 28 46 15 25 - - 0.0
22/12:00pm 29.3 24.7 13.5 38 9.5 ENE 30 43 16 23 - - 0.0
22/11:30am 28.7 24.8 13.4 39 9.1 E 26 41 14 22 - - 0.0
22/11:00am 28.5 25.6 12.8 38 9.3 E 20 32 11 17 - - 0.0
22/10:30am 28.5 25.7 13.2 39 9.1 E 20 33 11 18 - - 0.0
22/10:00am 27.7 24.0 14.0 43 8.2 E 26 35 14 19 - - 0.0
22/09:30am 26.4 22.9 14.5 48 7.2 E 26 43 14 23 - - 0.0
22/09:00am 26.9 26.1 15.0 48 7.2 ESE 13 28 7 15 - - 0.0
22/08:30am 25.0 25.1 15.6 56 5.7 S 9 20 5 11 - - 0.0
22/08:00am 24.4 25.4 16.9 63 4.7 S 7 15 4 8 - - 0.0
22/07:30am 23.1 24.3 16.9 68 3.8 SSE 6 11 3 6 - - 0.0
22/07:00am 21.6 23.1 16.6 73 3.1 SSE 4 6 2 3 - - 0.0
22/06:30am 21.1 22.1 16.9 77 2.6 SSE 7 13 4 7 - - 0.0
22/06:00am 20.4 21.1 17.0 81 2.1 S 9 13 5 7 - - 0.0
22/05:30am 20.4 21.1 17.0 81 2.1 S 9 13 5 7 - - 0.0
22/05:00am 20.4 21.0 16.8 80 2.2 SSE 9 15 5 8 - - 0.0
22/04:30am 20.6 21.3 17.0 80 2.2 S 9 13 5 7 - - 0.0
22/04:00am 20.8 21.5 17.0 79 2.3 SSE 9 17 5 9 - - 0.0
22/03:30am 21.1 21.7 16.9 77 2.6 SSE 9 15 5 8 - - 0.0
22/03:00am 21.4 22.0 16.8 75 2.8 SSE 9 19 5 10 - - 0.0
22/02:30am 22.5 20.5 16.5 69 3.7 ESE 22 35 12 19 - - 0.0
22/02:00am 22.4 20.9 16.7 70 3.5 E 20 33 11 18 - - 0.0
22/01:30am 22.5 21.3 17.0 71 3.4 E 19 26 10 14 - - 0.0
22/01:00am 22.6 21.4 17.1 71 3.4 E 19 28 10 15 - - 0.0
22/12:30am 22.8 21.6 17.0 70 3.6 E 19 33 10 18 - - 0.0
22/12:00am 22.9 22.0 16.9 69 3.7 ESE 17 30 9 16 - - 0.0
 
Date/Time
EST
Temp
°C
App
Temp
°C
Dew
Point
°C
Rel
Hum
%
Delta-T
°C
Wind Press
QNH
hPa
Press
MSL
hPa
Rain since
9am
mm
Dir  Spd
km/h
Gust
km/h
Spd
kts
Gust
kts
21/11:30pm 22.9 23.4 17.4 71 3.4 ESE 11 20 6 11 - - 0.0
21/11:00pm 22.9 23.0 17.4 71 3.4 E 13 19 7 10 - - 0.0
21/10:30pm 22.9 23.4 17.4 71 3.4 E 11 17 6 9 - - 0.0
21/10:00pm 23.1 22.8 17.3 70 3.6 E 15 26 8 14 - - 0.0
21/09:30pm 23.1 22.4 17.3 70 3.6 E 17 30 9 16 - - 0.0
21/09:00pm 23.2 22.1 17.4 70 3.6 E 19 28 10 15 - - 0.0
21/08:30pm 23.4 21.8 17.4 69 3.7 E 22 37 12 20 - - 0.0
21/08:00pm 23.7 21.2 17.2 67 4.0 E 26 37 14 20 - - 0.0
21/07:30pm 23.8 20.7 17.5 68 3.9 E 30 41 16 22 - - 0.0
21/07:00pm 23.9 20.6 17.9 69 3.8 ENE 32 50 17 27 - - 0.0
21/06:30pm 24.0 20.5 18.0 69 3.8 ENE 33 46 18 25 - - 0.0
21/06:00pm 24.4 20.4 17.6 66 4.3 ENE 35 50 19 27 - - 0.0
21/05:51pm 24.7 21.1 17.7 65 4.4 ENE 33 52 18 28 - - 0.0
21/05:30pm 25.1 21.9 17.3 62 4.9 E 30 46 16 25 - - 0.0
21/05:02pm 26.0 22.0 16.3 55 6.0 ENE 32 52 17 28 - - 0.0
21/05:00pm 26.1 22.1 16.1 54 6.2 ENE 32 46 17 25 - - 0.0
21/04:44pm 26.4 22.1 15.8 52 6.5 ENE 33 54 18 29 - - 0.0
21/04:30pm 26.6 21.2 14.0 46 7.5 ENE 35 52 19 28 - - 0.0
21/04:15pm 26.6 20.8 15.0 49 7.1 ENE 39 57 21 31 - - 0.0
21/04:00pm 26.8 21.5 16.4 53 6.5 ENE 39 56 21 30 - - 0.0
21/03:30pm 27.6 23.2 17.5 54 6.4 ENE 37 54 20 29 - - 0.0
21/03:00pm 27.9 23.2 16.8 50 7.0 ENE 37 57 20 31 - - 0.0
21/02:54pm 27.7 22.8 17.3 53 6.6 E 39 57 21 31 - - 0.0
21/02:30pm 27.8 23.4 17.6 53 6.5 ENE 37 54 20 29 - - 0.0
21/02:00pm 28.6 24.0 17.2 50 7.2 ENE 37 48 20 26 - - 0.0
21/01:31pm 28.9 24.4 17.4 49 7.3 ENE 37 57 20 31 - - 0.0
21/01:30pm 28.8 23.9 17.3 49 7.3 ENE 39 57 21 31 - - 0.0
21/01:29pm 28.9 24.4 17.4 49 7.3 ENE 37 57 20 31 - - 0.0
21/01:00pm 28.8 25.0 16.7 48 7.6 E 32 46 17 25 - - 0.0
21/12:30pm 28.2 25.1 17.4 52 6.9 E 30 43 16 23 - - 0.0
21/12:00pm 29.6 26.7 17.1 47 7.9 ENE 28 39 15 21 - - 0.0
21/11:30am 29.8 28.0 17.9 48 7.6 E 24 35 13 19 - - 0.0
21/11:00am 28.9 27.6 15.8 45 8.1 E 17 33 9 18 - - 0.0
21/10:30am 29.6 26.4 15.3 41 8.8 E 26 43 14 23 - - 0.0
21/10:00am 29.3 27.5 15.4 42 8.6 E 19 26 10 14 - - 0.0
21/09:30am 27.2 28.3 17.9 56 5.9 S 9 15 5 8 - - 0.0
21/09:00am 27.1 28.0 18.4 59 5.6 S 11 20 6 11 - - 0.0
21/08:30am 24.1 26.3 19.6 76 2.9 SSW 7 11 4 6 - - 0.0
21/08:00am 24.3 26.6 19.8 76 2.9 SE 7 17 4 9 - - 0.0
21/07:30am 22.4 24.9 19.8 85 1.7 SSW 6 9 3 5 - - 0.0
21/07:00am 22.3 25.1 19.7 85 1.7 SSW 4 6 2 3 - - 0.0
21/06:30am 22.0 24.8 19.7 87 1.5 SSE 4 6 2 3 - - 0.0
21/06:00am 21.4 23.7 19.9 91 1.0 SE 7 9 4 5 - - 0.0
21/05:30am 21.2 24.3 20.2 94 0.6 ESE 4 4 2 2 - - 0.0
21/05:00am 21.1 24.9 20.1 94 0.6 CALM 0 2 0 1 - - 0.0
21/04:30am 21.5 24.5 20.0 91 1.0 SSE 4 6 2 3 - - 0.0
21/04:00am 21.7 24.4 20.2 91 1.0 SSE 6 9 3 5 - - 0.0
21/03:30am 21.6 23.9 19.9 90 1.1 SE 7 11 4 6 - - 0.0
21/03:00am 22.2 24.5 19.4 84 1.8 ESE 6 9 3 5 - - 0.0
21/02:30am 22.7 24.4 19.3 81 2.2 ENE 9 11 5 6 - - 0.0
21/02:00am 22.8 24.9 19.4 81 2.2 ENE 7 11 4 6 - - 0.0
21/01:30am 23.1 25.3 19.5 80 2.3 NE 7 11 4 6 - - 0.0
21/01:00am 22.9 25.2 19.5 81 2.2 NE 6 7 3 4 - - 0.0
21/12:30am 23.0 25.2 19.6 81 2.2 ENE 7 9 4 5 - - 0.0
21/12:00am 23.0 24.8 19.6 81 2.2 NE 9 13 5 7 - - 0.0
 
Date/Time
EST
Temp
°C
App
Temp
°C
Dew
Point
°C
Rel
Hum
%
Delta-T
°C
Wind Press
QNH
hPa
Press
MSL
hPa
Rain since
9am
mm
Dir  Spd
km/h
Gust
km/h
Spd
kts
Gust
kts
20/11:30pm 23.0 25.2 19.6 81 2.2 ENE 7 11 4 6 - - 0.0
20/11:00pm 23.1 25.4 19.5 80 2.3 ENE 6 7 3 4 - - 0.0
20/10:30pm 23.2 25.3 19.4 79 2.4 ENE 7 11 4 6 - - 0.0
20/10:00pm 23.3 25.5 19.5 79 2.4 ENE 7 15 4 8 - - 0.0
20/09:30pm 23.4 25.1 19.3 78 2.6 ENE 9 11 5 6 - - 0.0
20/09:00pm 23.5 25.1 19.2 77 2.8 ENE 9 13 5 7 - - 0.0
20/08:30pm 23.8 25.6 19.5 77 2.8 ENE 9 15 5 8 - - 0.0
20/08:00pm 23.8 25.8 19.9 79 2.5 ENE 9 15 5 8 - - 0.0
20/07:30pm 24.0 25.1 19.7 77 2.8 NE 13 20 7 11 - - 0.0
20/07:00pm 24.1 24.9 19.8 77 2.8 NNE 15 22 8 12 - - 0.0
20/06:30pm 24.4 25.5 19.7 75 3.0 NNE 13 24 7 13 - - 0.0
20/06:00pm 24.9 24.7 19.3 71 3.6 NNE 19 30 10 16 - - 0.0
20/05:30pm 25.9 25.7 18.6 64 4.7 NE 17 24 9 13 - - 0.0
20/05:00pm 26.4 24.9 18.5 62 5.1 ENE 24 35 13 19 - - 0.0
20/04:30pm 27.0 25.1 18.6 60 5.4 ENE 26 35 14 19 - - 0.0
20/04:00pm 28.1 25.3 18.2 55 6.4 ENE 30 41 16 22 - - 0.0
20/03:30pm 29.2 27.2 18.3 51 7.0 ENE 26 35 14 19 - - 0.0
20/03:00pm 30.4 27.6 16.4 43 8.8 ENE 26 35 14 19 - - 0.0
20/02:30pm 31.9 30.2 16.2 38 9.9 NE 20 33 11 18 - - 0.0
20/02:00pm 32.5 30.4 15.1 35 10.8 E 20 28 11 15 - - 0.0
20/01:30pm 35.9 33.3 6.2 16 16.4 SSW 9 15 5 8 - - 0.0
20/01:00pm 35.4 31.8 -3.8 8 18.4 SSE 6 13 3 7 - - 0.0
20/12:30pm 34.8 31.3 -1.3 10 17.6 SSW 7 15 4 8 - - 0.0
20/12:00pm 35.8 31.5 -2.0 9 18.3 SSE 11 17 6 9 - - 0.0
20/11:30am 34.4 30.1 -1.6 10 17.4 S 11 19 6 10 - - 0.0
20/11:00am 33.6 31.4 6.0 18 15.0 SSE 7 17 4 9 - - 0.0
20/10:30am 32.3 29.6 5.7 19 14.3 SSE 9 17 5 9 - - 0.0
20/10:00am 30.8 29.3 9.1 26 12.2 S 7 13 4 7 - - 0.0
20/09:30am 28.7 27.9 11.7 35 9.9 SSW 7 15 4 8 - - 0.0
20/09:00am 27.1 27.2 13.8 44 7.9 S 6 11 3 6 - - 0.0

Other formats

Comma delimited format used in spreadsheet applications
http://www.bom.gov.au/fwo/IDQ60801/IDQ60801.94272.axf

JavaScript Object Notation format (JSON) in row-major order
http://www.bom.gov.au/fwo/IDQ60801/IDQ60801.94272.json

Data quality

Most of these data are generated automatically and are frequently updated. Quality checks on data are not normally performed. It is possible for incorrect values to appear. Refer to information at About Latest Weather Observations and please check the disclaimer before using these data.